createdAt,value
2023-01-09T00:01:06.218Z,84.54
2023-01-09T00:05:07.978Z,84.54
2023-01-09T00:10:07.784Z,84.53
2023-01-09T00:15:08.616Z,84.55
2023-01-09T00:20:08.449Z,84.55
2023-01-09T00:25:08.219Z,84.54
2023-01-09T00:30:07.988Z,84.55
2023-01-09T00:35:07.800Z,84.55
2023-01-09T00:40:08.675Z,84.56
2023-01-09T00:45:08.524Z,84.58
2023-01-09T00:50:08.314Z,84.58
2023-01-09T00:55:08.126Z,84.55
2023-01-09T01:00:07.914Z,84.58
2023-01-09T01:05:08.513Z,84.57
2023-01-09T01:10:08.393Z,84.58
2023-01-09T01:15:08.225Z,84.58
2023-01-09T01:20:08.043Z,84.6
2023-01-09T01:25:07.961Z,84.61
2023-01-09T01:30:07.767Z,84.6
2023-01-09T01:35:08.587Z,84.62
2023-01-09T01:40:08.406Z,84.6
2023-01-09T01:45:08.189Z,84.6
2023-01-09T01:50:07.989Z,84.6
2023-01-09T01:55:07.823Z,84.64
2023-01-09T02:00:08.631Z,84.63
2023-01-09T02:05:08.436Z,84.65
2023-01-09T02:10:08.508Z,84.67
2023-01-09T02:15:08.313Z,84.67
2023-01-09T02:20:08.143Z,84.68
2023-01-09T02:25:07.949Z,84.68
2023-01-09T02:30:07.732Z,84.7
2023-01-09T02:35:08.573Z,84.72
2023-01-09T02:40:08.358Z,84.71
2023-01-09T02:45:08.155Z,84.71
2023-01-09T02:50:07.951Z,84.73
2023-01-09T02:55:07.791Z,84.7
2023-01-09T03:00:08.582Z,84.72
2023-01-09T03:05:08.404Z,84.71
2023-01-09T03:10:08.257Z,84.74
2023-01-09T03:15:08.063Z,84.74
2023-01-09T03:20:07.900Z,84.74
2023-01-09T03:25:08.722Z,84.73
2023-01-09T03:30:08.546Z,84.75
2023-01-09T03:35:08.370Z,84.74
2023-01-09T03:40:08.179Z,84.76
2023-01-09T03:45:07.999Z,84.76
2023-01-09T03:50:07.811Z,84.77
2023-01-09T03:55:15.514Z,84.75
2023-01-09T04:00:08.543Z,84.77
2023-01-09T04:05:08.392Z,84.75
2023-01-09T04:10:08.220Z,84.76
2023-01-09T04:15:08.033Z,84.78
2023-01-09T04:20:07.817Z,84.76
2023-01-09T04:25:08.621Z,84.78
2023-01-09T04:30:08.463Z,84.78
2023-01-09T04:35:08.245Z,84.77
2023-01-09T04:40:09.549Z,84.77
2023-01-09T04:45:08.379Z,84.77
2023-01-09T04:50:08.186Z,84.79
2023-01-09T04:55:07.991Z,84.77
2023-01-09T05:00:07.805Z,84.78
2023-01-09T05:05:05.067Z,84.81
2023-01-09T05:10:03.203Z,84.77
2023-01-09T05:15:02.293Z,84.8
2023-01-09T05:20:02.663Z,84.79
2023-01-09T05:25:03.233Z,84.79
2023-01-09T05:30:02.809Z,84.78
2023-01-09T05:35:03.689Z,84.8
2023-01-09T05:40:03.079Z,84.81
2023-01-09T05:45:02.903Z,84.8
2023-01-09T05:50:03.280Z,84.81
2023-01-09T05:55:02.472Z,84.82
2023-01-09T06:00:03.583Z,84.8
2023-01-09T06:05:02.978Z,84.85
2023-01-09T06:10:02.430Z,84.85
2023-01-09T06:15:02.924Z,84.83
2023-01-09T06:20:02.234Z,84.82
2023-01-09T06:25:02.437Z,84.81
2023-01-09T06:30:02.964Z,84.82
2023-01-09T06:35:02.006Z,84.79
2023-01-09T06:40:02.401Z,84.79
2023-01-09T06:45:03.179Z,84.8
2023-01-09T06:50:03.569Z,84.79
2023-01-09T06:55:03.662Z,84.8
2023-01-09T07:00:03.249Z,84.79
2023-01-09T07:05:02.293Z,84.79
2023-01-09T07:10:03.335Z,84.79
2023-01-09T07:15:03.075Z,84.77
2023-01-09T07:20:02.423Z,84.77
2023-01-09T07:25:03.303Z,84.78
2023-01-09T07:30:02.697Z,84.77
2023-01-09T07:35:03.274Z,84.77
2023-01-09T07:40:02.702Z,84.77
2023-01-09T07:45:04.666Z,84.77
2023-01-09T07:50:06.736Z,84.77
2023-01-09T07:55:05.024Z,84.75
2023-01-09T08:00:03.828Z,84.75
2023-01-09T08:05:03.932Z,84.74
2023-01-09T08:10:02.205Z,84.75
2023-01-09T08:15:04.069Z,84.73
2023-01-09T08:20:02.167Z,84.74
2023-01-09T08:25:03.158Z,84.7
2023-01-09T08:30:02.654Z,84.71
2023-01-09T08:35:03.345Z,84.72
2023-01-09T08:40:04.171Z,84.72
2023-01-09T08:45:02.904Z,84.7
2023-01-09T08:50:03.325Z,84.7
2023-01-09T08:55:02.679Z,84.71
2023-01-09T09:00:02.864Z,84.7
2023-01-09T09:05:03.605Z,84.72
2023-01-09T09:10:03.678Z,84.71
2023-01-09T09:15:03.177Z,84.7
2023-01-09T09:20:02.563Z,84.73
2023-01-09T09:25:02.682Z,84.71
2023-01-09T09:30:04.199Z,84.72
2023-01-09T09:35:02.512Z,84.7
2023-01-09T09:40:17.390Z,84.7
2023-01-09T09:45:02.637Z,84.7
2023-01-09T09:50:03.667Z,84.71
2023-01-09T09:55:03.470Z,84.68
2023-01-09T10:00:04.303Z,84.67
2023-01-09T10:05:03.051Z,84.68
2023-01-09T10:10:02.373Z,84.67
2023-01-09T10:15:03.882Z,84.66
2023-01-09T10:20:03.579Z,84.65
2023-01-09T10:25:03.655Z,84.65
2023-01-09T10:30:04.069Z,84.64
2023-01-09T10:35:03.075Z,84.63
2023-01-09T10:40:03.305Z,84.63
2023-01-09T10:45:02.994Z,84.63
2023-01-09T10:50:02.796Z,84.63
2023-01-09T10:55:04.885Z,84.64
2023-01-09T11:00:03.474Z,84.63
2023-01-09T11:05:03.316Z,84.61
2023-01-09T11:10:02.398Z,84.62
2023-01-09T11:15:03.205Z,84.62
2023-01-09T11:20:13.742Z,84.59
2023-01-09T11:25:02.995Z,84.62
2023-01-09T11:30:03.038Z,84.59
2023-01-09T11:35:02.557Z,84.58
2023-01-09T11:40:03.226Z,84.58
2023-01-09T11:45:04.585Z,84.58
2023-01-09T11:50:04.162Z,84.55
2023-01-09T11:55:02.283Z,84.57
2023-01-09T12:00:03.021Z,84.57
2023-01-09T12:05:02.843Z,84.56
2023-01-09T12:10:03.766Z,84.57
2023-01-09T12:15:13.815Z,84.56
2023-01-09T12:20:03.896Z,84.57
2023-01-09T12:25:02.917Z,84.56
2023-01-09T12:30:03.751Z,84.58
2023-01-09T12:35:13.423Z,84.58
2023-01-09T12:40:03.270Z,84.59
2023-01-09T12:45:03.394Z,84.59
2023-01-09T12:50:03.419Z,84.59
2023-01-09T12:55:09.503Z,84.6
2023-01-09T13:00:02.993Z,84.59
2023-01-09T13:05:04.013Z,84.58
2023-01-09T13:10:02.512Z,84.58
2023-01-09T13:15:03.562Z,84.58
2023-01-09T13:20:03.263Z,84.59
2023-01-09T13:25:02.752Z,84.59
2023-01-09T13:30:03.676Z,84.59
2023-01-09T13:35:02.627Z,84.61
2023-01-09T13:40:02.626Z,84.61
2023-01-09T13:45:03.958Z,84.6
2023-01-09T13:50:04.252Z,84.58
2023-01-09T13:55:02.409Z,84.56
2023-01-09T14:00:02.622Z,84.57
2023-01-09T14:05:13.466Z,84.55
2023-01-09T14:10:02.558Z,84.54
2023-01-09T14:15:03.867Z,84.55
2023-01-09T14:20:03.196Z,84.56
2023-01-09T14:25:05.249Z,84.57
2023-01-09T14:30:05.584Z,84.58
2023-01-09T14:35:02.961Z,84.58
2023-01-09T14:40:02.517Z,84.62
2023-01-09T14:45:02.987Z,84.68
2023-01-09T14:50:12.486Z,84.65
2023-01-09T14:55:03.142Z,84.63
2023-01-09T15:00:03.339Z,84.62
2023-01-09T15:05:02.722Z,84.62
2023-01-09T15:10:02.651Z,84.63
2023-01-09T15:15:04.674Z,84.64
2023-01-09T15:20:02.790Z,84.65
2023-01-09T15:25:03.869Z,84.63
2023-01-09T15:30:03.716Z,84.66
2023-01-09T15:35:03.061Z,84.64
2023-01-09T15:40:04.014Z,84.67
2023-01-09T15:45:02.283Z,84.69
2023-01-09T15:50:02.545Z,84.71
2023-01-09T15:55:07.880Z,84.71
2023-01-09T16:00:03.795Z,84.71
2023-01-09T16:05:03.257Z,84.72
2023-01-09T16:10:03.411Z,84.73
2023-01-09T16:15:03.344Z,84.74
2023-01-09T16:20:03.607Z,84.72
2023-01-09T16:25:03.534Z,84.75
2023-01-09T16:30:03.657Z,84.74
2023-01-09T16:35:06.592Z,84.75
2023-01-09T16:40:11.913Z,84.72
2023-01-09T16:45:04.539Z,84.73
2023-01-09T16:50:10.755Z,84.74
2023-01-09T16:55:04.376Z,84.75
2023-01-09T17:00:02.771Z,84.75
2023-01-09T17:05:13.833Z,84.76
2023-01-09T17:10:04.120Z,84.75
2023-01-09T17:15:02.576Z,84.75
2023-01-09T17:20:03.306Z,84.74
2023-01-09T17:25:02.315Z,84.74
2023-01-09T17:30:17.676Z,84.77
2023-01-09T17:35:02.720Z,84.73
2023-01-09T17:40:03.069Z,84.74
2023-01-09T17:45:02.603Z,84.81
2023-01-09T17:50:03.295Z,84.8
2023-01-09T17:55:03.471Z,84.79
2023-01-09T18:00:03.023Z,84.77
2023-01-09T18:05:03.140Z,84.78
2023-01-09T18:10:02.671Z,84.78
2023-01-09T18:15:03.175Z,84.81
2023-01-09T18:20:02.122Z,84.81
2023-01-09T18:25:04.480Z,84.81
2023-01-09T18:30:05.538Z,84.82
2023-01-09T18:35:04.504Z,84.82
2023-01-09T18:40:03.811Z,84.81
2023-01-09T18:45:03.831Z,84.83
2023-01-09T18:50:04.595Z,84.82
2023-01-09T18:55:05.215Z,84.83
2023-01-09T19:00:03.448Z,84.81
2023-01-09T19:05:03.150Z,84.82
2023-01-09T19:10:05.295Z,84.81
2023-01-09T19:15:03.080Z,84.81
2023-01-09T19:20:02.704Z,84.81
2023-01-09T19:25:03.308Z,84.82
2023-01-09T19:30:03.505Z,84.81
2023-01-09T19:35:03.760Z,84.81
2023-01-09T19:40:03.163Z,84.82
2023-01-09T19:45:03.037Z,84.82
2023-01-09T19:50:05.019Z,84.83
2023-01-09T19:55:03.081Z,84.83
2023-01-09T20:00:03.142Z,84.84
2023-01-09T20:05:03.009Z,84.84
2023-01-09T20:10:02.991Z,84.84
2023-01-09T20:15:04.167Z,84.87
2023-01-09T20:20:03.343Z,84.86
2023-01-09T20:25:02.826Z,84.87
2023-01-09T20:30:02.950Z,84.87
2023-01-09T20:35:02.803Z,84.88
2023-01-09T20:40:05.022Z,84.91
2023-01-09T20:45:03.253Z,84.88
2023-01-09T20:50:03.339Z,84.91
2023-01-09T20:55:03.028Z,84.91
2023-01-09T21:00:04.968Z,84.92
2023-01-09T21:05:03.200Z,84.9
2023-01-09T21:10:03.443Z,84.91
2023-01-09T21:15:04.023Z,84.9
2023-01-09T21:20:02.969Z,84.91
2023-01-09T21:25:02.753Z,84.89
2023-01-09T21:30:07.491Z,84.9
2023-01-09T21:35:03.399Z,84.92
2023-01-09T21:40:03.281Z,84.9
2023-01-09T21:45:02.278Z,84.91
2023-01-09T21:50:03.743Z,84.92
2023-01-09T21:55:03.240Z,84.93
2023-01-09T22:00:02.421Z,84.93
2023-01-09T22:05:22.200Z,84.92
2023-01-09T22:10:08.011Z,84.93
2023-01-09T22:15:07.832Z,84.94
2023-01-09T22:20:08.649Z,84.92
2023-01-09T22:25:08.472Z,84.93
2023-01-09T22:30:08.285Z,84.95
2023-01-09T22:35:08.109Z,84.94
2023-01-09T22:40:07.915Z,84.94
2023-01-09T22:45:08.705Z,84.94
2023-01-09T22:50:08.528Z,84.94
2023-01-09T22:55:08.303Z,84.93
2023-01-09T23:00:08.120Z,84.93
2023-01-09T23:05:08.084Z,84.94
2023-01-09T23:10:07.866Z,84.93
2023-01-09T23:15:08.682Z,84.94
2023-01-09T23:20:08.518Z,84.95
2023-01-09T23:25:08.355Z,84.97
2023-01-09T23:30:08.176Z,84.95
2023-01-09T23:35:08.004Z,84.95
2023-01-09T23:40:07.844Z,84.96
2023-01-09T23:45:08.686Z,84.96
2023-01-09T23:50:08.494Z,84.96
2023-01-09T23:55:08.314Z,84.98
